Time;durP1;ratioP1;P1;durP2;ratioP2;P2;SDS_P1;SDS_P2;PMS_P1;PMS_P2;Temp;Humidity;BMP_temperature;BMP_pressure;BME280_temperature;BME280_humidity;BME280_pressure;Samples;Min_cycle;Max_cycle;Signal;HPM_P1;HPM_P2
2022/05/10 00:00:58;;;;;;;8.88;6.18;;;12.70;99.90;;;;;;2079996;28;20053;-70
2022/05/10 00:01:59;;;;;;;7.90;6.00;;;12.70;99.90;;;;;;2080588;28;20033;-70
2022/05/10 00:03:02;;;;;;;8.32;5.90;;;12.70;99.90;;;;;;2079884;28;20025;-70
2022/05/10 00:04:04;;;;;;;8.50;5.65;;;12.60;99.90;;;;;;2079814;28;20022;-71
2022/05/10 00:05:06;;;;;;;11.02;6.35;;;12.60;99.90;;;;;;2080000;28;20071;-71
2022/05/10 00:06:07;;;;;;;7.80;5.60;;;12.60;99.90;;;;;;2079998;28;20018;-70
2022/05/10 00:07:08;;;;;;;8.65;5.82;;;12.60;99.90;;;;;;2080630;28;20631;-71
2022/05/10 00:08:12;;;;;;;8.48;5.65;;;12.60;99.90;;;;;;2080618;28;20075;-71
2022/05/10 00:09:16;;;;;;;9.73;5.75;;;12.60;99.90;;;;;;2080746;28;20108;-70
2022/05/10 00:10:16;;;;;;;10.68;5.70;;;12.60;99.90;;;;;;2079879;28;20131;-71
2022/05/10 00:11:17;;;;;;;9.40;5.80;;;12.60;99.90;;;;;;2079956;28;20399;-70
2022/05/10 00:12:18;;;;;;;8.75;5.72;;;12.60;99.90;;;;;;2079860;28;20506;-71
2022/05/10 00:13:18;;;;;;;7.88;5.25;;;12.60;99.90;;;;;;2079984;28;20536;-70
2022/05/10 00:14:21;;;;;;;7.53;5.63;;;12.60;99.90;;;;;;2080087;28;20029;-70
2022/05/10 00:15:21;;;;;;;8.02;5.43;;;12.60;99.90;;;;;;2080570;28;20036;-70
2022/05/10 00:16:22;;;;;;;10.27;6.03;;;12.60;99.90;;;;;;2080543;28;20033;-70
2022/05/10 00:17:26;;;;;;;8.13;5.55;;;12.60;99.90;;;;;;2080494;28;20029;-70
2022/05/10 00:18:29;;;;;;;7.07;5.78;;;12.60;99.90;;;;;;2079786;28;20045;-69
2022/05/10 00:19:30;;;;;;;7.70;5.68;;;12.50;99.90;;;;;;2079929;28;20048;-70
2022/05/10 00:20:31;;;;;;;10.07;5.90;;;12.50;99.90;;;;;;2080397;28;20026;-69
2022/05/10 00:21:32;;;;;;;8.80;5.85;;;12.50;99.90;;;;;;2080511;28;20524;-70
2022/05/10 00:22:33;;;;;;;9.15;6.10;;;12.50;99.90;;;;;;2080268;28;20026;-70
2022/05/10 00:23:33;;;;;;;8.77;6.05;;;12.50;99.90;;;;;;2079814;28;20854;-70
2022/05/10 00:24:34;;;;;;;8.75;5.57;;;12.50;99.90;;;;;;2079551;28;20040;-69
2022/05/10 00:25:34;;;;;;;8.15;5.95;;;12.50;99.90;;;;;;2079782;28;20041;-70
2022/05/10 00:26:35;;;;;;;8.52;6.15;;;12.50;99.90;;;;;;2079840;28;20124;-70
2022/05/10 00:27:36;;;;;;;7.80;5.55;;;12.40;99.90;;;;;;2080518;28;20025;-70
2022/05/10 00:28:36;;;;;;;10.10;6.07;;;12.40;99.90;;;;;;2080291;28;20033;-70
2022/05/10 00:29:37;;;;;;;9.73;5.93;;;12.40;99.90;;;;;;2080350;28;20029;-69
2022/05/10 00:30:38;;;;;;;8.40;5.63;;;12.40;99.90;;;;;;2080314;28;20029;-70
2022/05/10 00:31:39;;;;;;;8.18;5.93;;;12.40;99.90;;;;;;2080395;28;20091;-69
2022/05/10 00:32:40;;;;;;;7.28;5.53;;;12.40;99.90;;;;;;2080570;28;20040;-69
2022/05/10 00:33:41;;;;;;;12.63;6.25;;;12.40;99.90;;;;;;2080580;28;20095;-71
2022/05/10 00:34:43;;;;;;;10.88;5.55;;;12.40;99.90;;;;;;2079997;28;20025;-70
2022/05/10 00:35:43;;;;;;;7.20;5.50;;;12.30;99.90;;;;;;2080522;28;20377;-70
2022/05/10 00:36:44;;;;;;;8.27;5.78;;;12.30;99.90;;;;;;2080362;28;20083;-69
2022/05/10 00:37:47;;;;;;;7.95;5.53;;;12.30;99.90;;;;;;2080377;28;20029;-69
2022/05/10 00:38:47;;;;;;;10.15;6.13;;;12.30;99.90;;;;;;2080580;28;20511;-70
2022/05/10 00:39:49;;;;;;;11.23;5.95;;;12.30;99.90;;;;;;2080423;28;20033;-70
2022/05/10 00:40:49;;;;;;;8.50;5.95;;;12.30;99.90;;;;;;2080465;28;20502;-69
2022/05/10 00:42:12;;;;;;;11.93;6.03;;;12.30;99.90;;;;;;2080399;28;20045;-69
2022/05/10 00:43:36;;;;;;;9.18;5.70;;;12.30;99.90;;;;;;2080349;28;20036;-70
2022/05/10 00:44:43;;;;;;;8.98;6.03;;;12.30;99.90;;;;;;2079504;28;20466;-70
2022/05/10 00:46:06;;;;;;;10.93;6.10;;;12.30;99.90;;;;;;2079916;28;20171;-70
2022/05/10 00:47:37;;;;;;;8.35;6.05;;;12.30;99.90;;;;;;2080280;28;20043;-70
2022/05/10 00:48:50;;;;;;;8.68;5.82;;;12.20;99.90;;;;;;2080134;28;20044;-69
2022/05/10 00:50:02;;;;;;;8.15;5.80;;;12.30;99.90;;;;;;2079646;28;20135;-70
2022/05/10 00:51:33;;;;;;;11.15;6.32;;;12.20;99.90;;;;;;2079766;28;20037;-70
2022/05/10 00:52:42;;;;;;;7.82;5.95;;;12.30;99.90;;;;;;2062680;28;20042;-70
2022/05/10 00:54:02;;;;;;;8.20;6.60;;;12.20;99.90;;;;;;2072618;28;20570;-70
2022/05/10 00:55:22;;;;;;;9.80;6.13;;;12.20;99.90;;;;;;2079693;28;20033;-70
2022/05/10 00:56:41;;;;;;;9.65;5.90;;;12.20;99.90;;;;;;2080315;28;20030;-69
2022/05/10 00:57:53;;;;;;;9.38;6.05;;;12.20;99.90;;;;;;2080050;28;20021;-71
2022/05/10 00:59:41;;;;;;;8.82;6.00;;;12.20;99.90;;;;;;2079980;28;20026;-70
2022/05/10 01:00:42;;;;;;;9.60;6.18;;;12.20;99.90;;;;;;2070773;28;20038;-70
2022/05/10 01:01:47;;;;;;;10.85;6.15;;;12.10;99.90;;;;;;2070936;28;20034;-70
2022/05/10 01:03:05;;;;;;;8.80;6.20;;;12.20;99.90;;;;;;2070821;28;20029;-70
2022/05/10 01:04:25;;;;;;;9.32;6.07;;;12.10;99.90;;;;;;2070539;28;20476;-69
2022/05/10 01:05:37;;;;;;;10.00;6.30;;;12.10;99.90;;;;;;2062844;28;20026;-70
2022/05/10 01:06:48;;;;;;;9.77;6.28;;;12.10;99.90;;;;;;2075641;28;20052;-70
2022/05/10 01:08:18;;;;;;;9.07;6.22;;;12.10;99.90;;;;;;2079943;28;20025;-70
2022/05/10 01:09:45;;;;;;;11.45;6.43;;;12.10;99.90;;;;;;2079895;28;20088;-70
2022/05/10 01:11:04;;;;;;;9.63;6.30;;;12.10;99.90;;;;;;2080093;28;20025;-70
2022/05/10 01:12:28;;;;;;;9.00;6.35;;;12.00;99.90;;;;;;2079549;28;20025;-70
2022/05/10 01:13:37;;;;;;;10.40;6.47;;;12.00;99.90;;;;;;2079937;28;20036;-70
2022/05/10 01:14:44;;;;;;;10.15;5.82;;;12.00;99.90;;;;;;2079020;28;20115;-70
2022/05/10 01:15:56;;;;;;;10.00;6.30;;;12.00;99.90;;;;;;2072050;28;20021;-69
2022/05/10 01:16:57;;;;;;;9.52;6.15;;;12.00;99.90;;;;;;2079664;28;20021;-69
2022/05/10 01:17:58;;;;;;;10.18;6.32;;;12.00;99.90;;;;;;2079980;28;20064;-70
2022/05/10 01:18:59;;;;;;;9.55;6.00;;;12.00;99.90;;;;;;2080149;28;20027;-69
2022/05/10 01:20:00;;;;;;;9.65;6.30;;;11.90;99.90;;;;;;2079658;28;20060;-69
2022/05/10 01:21:25;;;;;;;9.77;6.38;;;11.90;99.90;;;;;;2080042;28;20109;-70
2022/05/10 01:22:44;;;;;;;9.10;6.80;;;11.90;99.90;;;;;;2075985;28;20438;-70
2022/05/10 01:24:21;;;;;;;11.13;6.50;;;11.90;99.90;;;;;;2080216;28;20040;-69
2022/05/10 01:25:42;;;;;;;9.45;6.50;;;11.90;99.90;;;;;;2083888;28;20033;-70
2022/05/10 01:26:50;;;;;;;7.80;5.55;;;11.80;99.90;;;;;;2079699;28;20057;-70
2022/05/10 01:28:13;;;;;;;8.45;5.97;;;11.80;99.90;;;;;;2083698;28;20037;-70
2022/05/10 01:29:36;;;;;;;10.60;6.28;;;11.80;99.90;;;;;;2080083;28;20037;-70
2022/05/10 01:30:37;;;;;;;8.50;6.63;;;11.80;99.90;;;;;;2080013;28;20052;-70
2022/05/10 01:33:31;;;;;;;11.32;6.53;;;11.70;99.90;;;;;;2070655;28;20125;-69
2022/05/10 01:34:32;;;;;;;11.43;6.30;;;11.70;99.90;;;;;;2079805;28;20038;-69
2022/05/10 01:35:37;;;;;;;9.15;6.38;;;11.70;99.90;;;;;;2079968;28;20041;-70
2022/05/10 01:36:37;;;;;;;8.20;6.53;;;11.70;99.90;;;;;;2079967;28;20080;-69
2022/05/10 01:37:43;;;;;;;9.60;6.35;;;11.70;99.90;;;;;;2079920;28;20140;-70
2022/05/10 01:38:49;;;;;;;8.43;6.30;;;11.70;99.90;;;;;;2080023;28;20487;-70
2022/05/10 01:40:18;;;;;;;9.65;6.45;;;11.70;99.90;;;;;;2080064;28;20030;-70
2022/05/10 01:41:37;;;;;;;10.73;6.70;;;11.60;99.90;;;;;;2079418;28;20032;-70
2022/05/10 01:42:42;;;;;;;10.57;6.40;;;11.60;99.90;;;;;;2079678;28;20157;-71
2022/05/10 01:43:55;;;;;;;9.45;6.47;;;11.60;99.90;;;;;;2079974;28;20041;-69
2022/05/10 01:45:10;;;;;;;7.80;6.10;;;11.60;99.90;;;;;;2078968;28;20021;-70
2022/05/10 01:46:24;;;;;;;9.65;6.88;;;11.60;99.90;;;;;;2079281;28;20028;-69
2022/05/10 01:47:36;;;;;;;11.98;6.57;;;11.60;99.90;;;;;;2079829;28;20480;-70
2022/05/10 01:48:39;;;;;;;11.23;6.68;;;11.60;99.90;;;;;;2079095;28;20045;-69
2022/05/10 01:49:54;;;;;;;10.63;6.85;;;11.60;99.90;;;;;;2079166;28;20030;-69
2022/05/10 01:51:00;;;;;;;10.32;6.60;;;11.50;99.90;;;;;;2079871;28;20500;-70
2022/05/10 01:52:11;;;;;;;9.50;6.63;;;11.50;99.90;;;;;;2079839;28;20025;-70
2022/05/10 01:53:20;;;;;;;9.57;6.30;;;11.50;99.90;;;;;;2079267;28;20124;-69
2022/05/10 01:54:57;;;;;;;9.43;6.40;;;11.50;99.90;;;;;;2071676;28;20558;-70
2022/05/10 01:56:12;;;;;;;9.75;6.50;;;11.40;99.90;;;;;;2075776;28;20076;-70
2022/05/10 01:57:16;;;;;;;12.23;6.80;;;11.40;99.90;;;;;;2079283;28;20479;-70
2022/05/10 01:58:22;;;;;;;11.10;7.03;;;11.40;99.90;;;;;;2079663;28;20025;-70
2022/05/10 01:59:23;;;;;;;10.05;6.32;;;11.40;99.90;;;;;;2079789;28;20029;-70
2022/05/10 02:00:27;;;;;;;9.10;6.50;;;11.40;99.90;;;;;;2079626;28;20052;-70
2022/05/10 02:01:36;;;;;;;10.82;6.47;;;11.40;99.90;;;;;;2079774;28;20026;-70
2022/05/10 02:03:06;;;;;;;8.55;6.25;;;11.40;99.90;;;;;;2079758;28;20418;-69
2022/05/10 02:04:11;;;;;;;10.15;6.85;;;11.30;99.90;;;;;;2078057;28;20057;-70
2022/05/10 02:05:18;;;;;;;9.93;7.13;;;11.30;99.90;;;;;;2079774;28;20025;-70
2022/05/10 02:06:38;;;;;;;9.85;6.43;;;11.30;99.90;;;;;;2079690;28;20516;-69
2022/05/10 02:07:41;;;;;;;9.52;6.55;;;11.30;99.90;;;;;;2079350;28;20033;-69
2022/05/10 02:08:57;;;;;;;9.20;6.55;;;11.20;99.90;;;;;;2079641;28;20434;-70
2022/05/10 02:10:03;;;;;;;11.25;7.15;;;11.20;99.90;;;;;;2079467;28;20159;-70
2022/05/10 02:11:11;;;;;;;9.55;6.82;;;11.20;99.90;;;;;;2078509;28;20048;-70
2022/05/10 02:12:22;;;;;;;10.20;6.63;;;11.20;99.90;;;;;;2079264;28;20045;-70
2022/05/10 02:13:33;;;;;;;9.30;6.70;;;11.20;99.90;;;;;;2079923;28;20033;-69
2022/05/10 02:14:56;;;;;;;8.95;6.93;;;11.20;99.90;;;;;;2078654;28;20029;-70
2022/05/10 02:16:14;;;;;;;12.65;7.22;;;11.20;99.90;;;;;;2073793;28;20026;-70
2022/05/10 02:17:32;;;;;;;9.45;6.70;;;11.20;99.90;;;;;;2079327;28;20539;-69
2022/05/10 02:19:17;;;;;;;11.55;7.05;;;11.20;99.90;;;;;;2079586;28;20028;-71
2022/05/10 02:20:23;;;;;;;10.93;7.13;;;11.20;99.90;;;;;;2070059;28;20121;-70
2022/05/10 02:21:39;;;;;;;10.75;7.07;;;11.20;99.90;;;;;;2070173;28;20496;-70
2022/05/10 02:22:54;;;;;;;12.45;7.25;;;11.10;99.90;;;;;;2075176;28;20044;-69
2022/05/10 02:24:04;;;;;;;9.07;7.05;;;11.10;99.90;;;;;;2078983;28;20514;-70
2022/05/10 02:25:12;;;;;;;11.20;7.70;;;11.10;99.90;;;;;;2079067;28;20056;-70
2022/05/10 02:26:18;;;;;;;10.73;7.18;;;11.10;99.90;;;;;;2079575;28;20657;-70
2022/05/10 02:27:28;;;;;;;10.45;7.03;;;11.10;99.90;;;;;;2078854;28;20025;-70
2022/05/10 02:28:42;;;;;;;11.23;7.13;;;11.10;99.90;;;;;;2078842;28;20033;-70
2022/05/10 02:29:55;;;;;;;9.98;6.85;;;11.10;99.90;;;;;;2078760;28;20033;-70
2022/05/10 02:31:00;;;;;;;11.90;7.45;;;11.10;99.90;;;;;;2078955;28;20021;-70
2022/05/10 02:33:30;;;;;;;9.85;6.88;;;11.00;99.90;;;;;;2079092;28;20026;-69
2022/05/10 02:34:35;;;;;;;10.13;6.90;;;11.00;99.90;;;;;;2079208;28;20065;-70
2022/05/10 02:35:49;;;;;;;9.90;7.43;;;11.00;99.90;;;;;;2079011;28;20091;-69
2022/05/10 02:36:51;;;;;;;9.52;7.13;;;11.00;99.90;;;;;;2078990;28;20046;-69
2022/05/10 02:37:52;;;;;;;9.73;7.38;;;11.00;99.90;;;;;;2079418;28;20033;-69
2022/05/10 02:38:52;;;;;;;12.75;7.25;;;11.00;99.90;;;;;;2078840;28;20053;-70
2022/05/10 02:39:53;;;;;;;12.13;7.15;;;11.00;99.90;;;;;;2078795;28;20036;-71
2022/05/10 02:40:57;;;;;;;10.55;7.20;;;11.00;99.90;;;;;;2078682;28;20059;-68
2022/05/10 02:42:01;;;;;;;10.32;7.43;;;11.00;99.90;;;;;;2078860;28;20467;-69
2022/05/10 02:43:02;;;;;;;10.25;6.75;;;10.90;99.90;;;;;;2078898;28;20508;-68
2022/05/10 02:44:04;;;;;;;11.48;7.35;;;10.90;99.90;;;;;;2078622;28;20097;-69
2022/05/10 02:45:07;;;;;;;12.73;7.43;;;10.90;99.90;;;;;;2079446;28;20104;-68
2022/05/10 02:46:08;;;;;;;9.23;7.07;;;10.90;99.90;;;;;;2079401;28;20079;-69
2022/05/10 02:47:10;;;;;;;10.15;7.20;;;10.90;99.90;;;;;;2078673;28;20033;-68
2022/05/10 02:48:22;;;;;;;10.20;7.30;;;10.90;99.90;;;;;;2078558;28;20069;-69
2022/05/10 02:49:23;;;;;;;9.70;7.25;;;10.90;99.90;;;;;;2079530;28;20036;-70
2022/05/10 02:50:31;;;;;;;9.60;7.38;;;10.90;99.90;;;;;;2079270;28;20034;-71
2022/05/10 02:51:31;;;;;;;9.77;7.10;;;10.90;99.90;;;;;;2078709;28;20575;-71
2022/05/10 02:52:32;;;;;;;11.77;6.82;;;10.90;99.90;;;;;;2070632;28;20026;-70
2022/05/10 02:53:32;;;;;;;11.00;7.20;;;10.90;99.90;;;;;;2070678;28;20041;-70
2022/05/10 02:54:33;;;;;;;10.65;7.13;;;10.90;99.90;;;;;;2078452;28;20071;-71
2022/05/10 02:55:51;;;;;;;10.40;7.25;;;10.90;99.90;;;;;;2078682;28;20181;-70
2022/05/10 02:56:52;;;;;;;9.77;6.95;;;10.90;99.90;;;;;;2073039;28;20053;-71
2022/05/10 02:57:57;;;;;;;9.98;7.35;;;10.90;99.90;;;;;;2070727;28;20104;-70
2022/05/10 02:59:15;;;;;;;12.00;7.53;;;10.90;99.90;;;;;;2078925;28;20045;-71
2022/05/10 03:00:16;;;;;;;11.07;7.35;;;10.90;99.90;;;;;;2079224;28;20199;-69
2022/05/10 03:01:44;;;;;;;11.10;7.03;;;10.80;99.90;;;;;;2079411;28;20033;-71
2022/05/10 03:02:49;;;;;;;11.20;7.32;;;10.80;99.90;;;;;;2079445;28;20408;-70
2022/05/10 03:03:50;;;;;;;10.15;7.30;;;10.80;99.90;;;;;;2079395;28;20476;-70
2022/05/10 03:04:58;;;;;;;9.82;6.97;;;10.80;99.90;;;;;;2078442;28;20037;-70
2022/05/10 03:05:58;;;;;;;11.45;7.20;;;10.80;99.90;;;;;;2078971;28;20087;-70
2022/05/10 03:06:59;;;;;;;11.45;7.38;;;10.80;99.90;;;;;;2070469;28;20611;-70
2022/05/10 03:07:59;;;;;;;8.93;6.88;;;10.90;99.90;;;;;;2062402;28;20029;-70
2022/05/10 03:09:00;;;;;;;10.82;7.05;;;10.80;99.90;;;;;;2070576;28;20059;-71
2022/05/10 03:10:01;;;;;;;11.45;7.40;;;10.80;99.90;;;;;;2078630;28;20055;-70
2022/05/10 03:11:02;;;;;;;11.60;7.30;;;10.80;99.90;;;;;;2078722;28;20037;-70
2022/05/10 03:12:05;;;;;;;10.18;7.35;;;10.80;99.90;;;;;;2078757;28;20021;-70
2022/05/10 03:13:06;;;;;;;11.70;7.63;;;10.80;99.90;;;;;;2079399;28;20451;-71
2022/05/10 03:14:09;;;;;;;11.77;7.32;;;10.80;99.90;;;;;;2079097;28;20120;-70
2022/05/10 03:15:10;;;;;;;11.10;7.20;;;10.80;99.90;;;;;;2079253;28;20033;-68
2022/05/10 03:16:11;;;;;;;13.10;7.68;;;10.80;99.90;;;;;;2079095;28;20025;-68
2022/05/10 03:17:12;;;;;;;10.10;7.43;;;10.90;99.90;;;;;;2079303;28;20518;-71
2022/05/10 03:18:13;;;;;;;12.07;7.63;;;10.90;99.90;;;;;;2079352;28;20405;-68
2022/05/10 03:19:15;;;;;;;11.30;7.10;;;10.90;99.90;;;;;;2078718;28;20115;-69
2022/05/10 03:20:16;;;;;;;10.55;7.63;;;10.80;99.90;;;;;;2078728;28;20029;-69
2022/05/10 03:21:17;;;;;;;10.88;7.68;;;10.80;99.90;;;;;;2079418;28;20044;-70
2022/05/10 03:22:17;;;;;;;10.02;7.90;;;10.80;99.90;;;;;;2079452;28;20128;-69
2022/05/10 03:23:18;;;;;;;10.30;7.78;;;10.80;99.90;;;;;;2080137;28;20128;-69
2022/05/10 03:24:19;;;;;;;11.07;7.95;;;10.80;99.90;;;;;;2080674;28;20111;-69
2022/05/10 03:25:20;;;;;;;11.00;7.40;;;10.80;99.90;;;;;;2080924;28;20146;-68
2022/05/10 03:26:25;;;;;;;10.35;7.68;;;10.80;99.90;;;;;;2081047;28;20040;-70
2022/05/10 03:27:26;;;;;;;12.20;7.90;;;10.80;99.90;;;;;;2081158;28;20033;-69
2022/05/10 03:28:27;;;;;;;10.57;7.80;;;10.80;99.90;;;;;;2081138;28;20042;-70
2022/05/10 03:29:29;;;;;;;11.10;7.55;;;10.80;99.90;;;;;;2081065;28;20035;-69
2022/05/10 03:30:30;;;;;;;13.77;7.93;;;10.80;99.90;;;;;;2080273;28;20060;-70
2022/05/10 03:31:31;;;;;;;11.50;7.97;;;10.80;99.90;;;;;;2072253;28;20030;-69
2022/05/10 03:32:32;;;;;;;9.30;7.40;;;10.80;99.90;;;;;;2072129;28;20044;-68
2022/05/10 03:33:33;;;;;;;10.90;7.70;;;10.80;99.90;;;;;;2080313;28;20616;-70
2022/05/10 03:35:53;;;;;;;12.57;7.20;;;10.80;99.90;;;;;;2080885;28;20030;-70
2022/05/10 03:36:53;;;;;;;12.93;7.65;;;10.80;99.90;;;;;;2080929;28;20047;-69
2022/05/10 03:37:54;;;;;;;12.32;7.30;;;10.80;99.90;;;;;;2080691;28;20060;-69
2022/05/10 03:38:54;;;;;;;10.68;7.70;;;10.80;99.90;;;;;;2080096;28;20029;-70
2022/05/10 03:39:57;;;;;;;11.18;7.30;;;10.80;99.90;;;;;;2080090;28;20431;-69
2022/05/10 03:40:57;;;;;;;11.23;7.13;;;10.80;99.90;;;;;;2080133;28;20014;-69
2022/05/10 03:41:58;;;;;;;10.88;7.85;;;10.80;99.90;;;;;;2080332;28;20139;-70
2022/05/10 03:42:59;;;;;;;11.20;7.30;;;10.90;99.90;;;;;;2080294;28;20064;-69
2022/05/10 03:43:59;;;;;;;11.13;7.20;;;10.80;99.90;;;;;;2080697;28;20025;-70
2022/05/10 03:45:00;;;;;;;12.02;7.40;;;10.90;99.90;;;;;;2080852;28;20029;-70
2022/05/10 03:46:05;;;;;;;13.07;7.63;;;10.90;99.90;;;;;;2080818;28;20108;-70
2022/05/10 03:47:09;;;;;;;11.38;7.30;;;11.00;99.90;;;;;;2080277;28;20033;-71
2022/05/10 03:48:10;;;;;;;11.38;7.45;;;11.00;99.90;;;;;;2080106;28;20045;-71
2022/05/10 03:49:11;;;;;;;14.45;7.95;;;11.00;99.90;;;;;;2080000;28;20029;-71
2022/05/10 03:50:12;;;;;;;10.77;7.65;;;11.00;99.90;;;;;;2072038;28;20826;-71
2022/05/10 03:51:13;;;;;;;11.52;7.35;;;11.10;99.90;;;;;;2080001;28;20037;-72
2022/05/10 03:52:15;;;;;;;13.50;7.60;;;11.10;99.90;;;;;;2080105;28;20545;-72
2022/05/10 03:53:18;;;;;;;12.20;7.50;;;11.10;99.90;;;;;;2080651;28;20178;-71
2022/05/10 03:54:19;;;;;;;10.18;7.70;;;11.10;99.90;;;;;;2079659;28;20083;-71
2022/05/10 03:55:25;;;;;;;10.27;7.22;;;11.20;99.90;;;;;;2071631;28;20037;-69
2022/05/10 03:56:26;;;;;;;11.85;7.97;;;11.20;99.90;;;;;;2079901;28;20531;-69
2022/05/10 03:57:26;;;;;;;10.95;7.45;;;11.20;99.90;;;;;;2079997;28;20079;-71
2022/05/10 03:58:27;;;;;;;11.45;7.40;;;11.20;99.90;;;;;;2080004;28;20060;-72
2022/05/10 03:59:28;;;;;;;11.30;7.30;;;11.20;99.90;;;;;;2080715;28;20116;-69
2022/05/10 04:00:29;;;;;;;11.30;7.40;;;11.30;99.90;;;;;;2080556;28;20036;-69
2022/05/10 04:01:29;;;;;;;10.35;7.82;;;11.30;99.90;;;;;;2080864;28;20093;-69
2022/05/10 04:02:30;;;;;;;10.25;7.32;;;11.30;99.90;;;;;;2080815;28;20040;-72
2022/05/10 04:03:31;;;;;;;10.98;7.25;;;11.30;99.90;;;;;;2079906;28;20484;-71
2022/05/10 04:04:31;;;;;;;10.60;7.95;;;11.30;99.90;;;;;;2063566;28;20512;-69
2022/05/10 04:05:32;;;;;;;10.98;7.70;;;11.30;99.90;;;;;;2071997;28;20639;-69
2022/05/10 04:06:33;;;;;;;11.73;7.63;;;11.40;99.90;;;;;;2080046;28;20412;-69
2022/05/10 04:07:34;;;;;;;11.95;7.57;;;11.40;99.90;;;;;;2071896;28;20065;-69
2022/05/10 04:08:34;;;;;;;11.05;7.40;;;11.40;99.90;;;;;;2079713;28;20128;-71
2022/05/10 04:09:35;;;;;;;12.23;7.53;;;11.40;99.90;;;;;;2080532;28;20030;-71
2022/05/10 04:10:36;;;;;;;10.75;7.78;;;11.50;99.90;;;;;;2080554;28;20053;-70
2022/05/10 04:11:36;;;;;;;11.50;7.90;;;11.50;99.90;;;;;;2079889;28;20088;-70
2022/05/10 04:12:38;;;;;;;11.43;7.80;;;11.60;99.90;;;;;;2080018;28;20772;-69
2022/05/10 04:13:40;;;;;;;12.77;7.32;;;11.60;99.90;;;;;;2080533;28;20033;-70
2022/05/10 04:14:41;;;;;;;12.90;8.13;;;11.60;99.90;;;;;;2079527;28;20033;-70
2022/05/10 04:15:41;;;;;;;9.98;7.68;;;11.70;99.90;;;;;;2079885;28;20030;-70
2022/05/10 04:16:42;;;;;;;12.18;7.75;;;11.80;99.90;;;;;;2080044;28;20026;-71
2022/05/10 04:17:43;;;;;;;13.35;8.00;;;11.90;99.90;;;;;;2080535;28;20041;-69
2022/05/10 04:18:44;;;;;;;10.43;7.80;;;12.10;99.90;;;;;;2080424;28;20112;-71
2022/05/10 04:19:44;;;;;;;11.00;7.53;;;12.20;99.90;;;;;;2080704;28;20033;-70
2022/05/10 04:20:45;;;;;;;13.90;7.85;;;12.40;99.90;;;;;;2080503;28;20035;-71
2022/05/10 04:21:45;;;;;;;16.00;7.90;;;12.40;99.90;;;;;;2080610;28;20036;-71
2022/05/10 04:22:46;;;;;;;11.95;8.13;;;12.60;99.90;;;;;;2080747;28;20052;-71
2022/05/10 04:23:46;;;;;;;12.73;7.70;;;12.70;99.90;;;;;;2079895;28;20492;-71
2022/05/10 04:24:47;;;;;;;10.80;7.32;;;12.90;99.90;;;;;;2079494;28;20037;-71
2022/05/10 04:25:48;;;;;;;11.02;7.07;;;13.10;99.90;;;;;;2080479;28;20122;-72
2022/05/10 04:26:52;;;;;;;12.60;7.32;;;13.30;99.90;;;;;;2080478;28;20033;-71
2022/05/10 04:27:55;;;;;;;12.63;7.70;;;13.50;99.90;;;;;;2079659;28;20528;-73
2022/05/10 04:29:06;;;;;;;13.40;7.50;;;13.70;99.90;;;;;;2063654;28;20402;-71
2022/05/10 04:30:08;;;;;;;10.98;7.25;;;13.90;99.90;;;;;;2072927;28;20045;-71
2022/05/10 04:31:09;;;;;;;12.65;8.45;;;14.20;99.90;;;;;;2079815;28;20105;-71
2022/05/10 04:32:09;;;;;;;11.55;7.70;;;14.20;99.90;;;;;;2079562;28;20042;-72
2022/05/10 04:33:12;;;;;;;13.02;7.25;;;14.20;99.90;;;;;;2079745;28;20022;-71
2022/05/10 04:34:13;;;;;;;11.57;7.28;;;14.20;99.90;;;;;;2079823;28;20411;-71
2022/05/10 04:35:14;;;;;;;10.63;7.07;;;14.30;99.90;;;;;;2080549;28;20123;-71
2022/05/10 04:36:14;;;;;;;9.68;7.05;;;14.50;99.90;;;;;;2079763;28;20030;-71
2022/05/10 04:37:15;;;;;;;10.35;7.03;;;14.60;99.90;;;;;;2079899;28;20033;-71
2022/05/10 04:38:16;;;;;;;10.10;7.57;;;14.70;99.80;;;;;;2080410;28;20032;-70
2022/05/10 04:39:16;;;;;;;11.32;7.07;;;14.80;99.30;;;;;;2080435;28;20431;-71
2022/05/10 04:41:38;;;;;;;10.30;6.90;;;14.90;98.50;;;;;;2080329;28;20033;-71
2022/05/10 04:42:42;;;;;;;10.70;7.15;;;15.10;98.00;;;;;;2080161;28;20025;-71
2022/05/10 04:43:42;;;;;;;11.95;7.35;;;15.20;97.30;;;;;;2079696;28;20399;-71
2022/05/10 04:44:43;;;;;;;11.35;7.00;;;15.30;96.70;;;;;;2079322;28;20021;-71
2022/05/10 04:45:44;;;;;;;11.05;7.15;;;15.50;96.20;;;;;;2079707;28;20772;-71
2022/05/10 04:46:45;;;;;;;11.60;6.90;;;15.60;95.50;;;;;;2071327;28;20038;-70
2022/05/10 04:47:45;;;;;;;10.77;6.93;;;15.80;94.90;;;;;;2079459;28;20025;-71
2022/05/10 04:48:46;;;;;;;10.05;6.57;;;16.00;94.00;;;;;;2071435;28;20092;-72
2022/05/10 04:49:47;;;;;;;10.50;6.80;;;16.20;93.30;;;;;;2079534;28;20044;-70
2022/05/10 04:50:48;;;;;;;10.95;7.00;;;16.30;92.40;;;;;;2071542;28;20030;-71
2022/05/10 04:51:48;;;;;;;10.10;7.13;;;16.30;91.80;;;;;;2071435;28;20026;-72
2022/05/10 04:52:49;;;;;;;10.65;7.15;;;16.20;91.50;;;;;;2080256;28;20017;-69
2022/05/10 04:53:50;;;;;;;10.05;6.70;;;16.00;91.30;;;;;;2080180;28;20033;-69
2022/05/10 04:54:50;;;;;;;10.75;6.85;;;15.80;91.70;;;;;;2079300;28;20033;-72
2022/05/10 04:55:52;;;;;;;11.73;7.07;;;15.60;92.40;;;;;;2079512;28;20033;-70
2022/05/10 04:56:53;;;;;;;12.45;6.82;;;15.50;93.20;;;;;;2080184;28;20037;-71
2022/05/10 04:57:53;;;;;;;10.98;6.75;;;15.50;93.60;;;;;;2080068;28;20033;-70
2022/05/10 04:58:54;;;;;;;10.32;6.50;;;15.60;93.60;;;;;;2080150;28;20025;-71
2022/05/10 04:59:55;;;;;;;12.32;6.82;;;15.70;93.30;;;;;;2080140;28;20440;-69
2022/05/10 05:01:01;;;;;;;12.43;6.70;;;15.90;92.90;;;;;;2080144;28;20126;-70
2022/05/10 05:02:01;;;;;;;15.85;7.38;;;16.10;92.30;;;;;;2080213;28;20134;-70
2022/05/10 05:03:02;;;;;;;19.38;6.90;;;16.30;91.60;;;;;;2079385;28;20476;-71
2022/05/10 05:04:02;;;;;;;14.65;7.18;;;16.50;91.00;;;;;;2079336;28;20045;-71
2022/05/10 05:05:05;;;;;;;16.65;7.10;;;16.80;90.30;;;;;;2079511;28;20041;-70
2022/05/10 05:06:05;;;;;;;18.75;7.30;;;16.90;88.90;;;;;;2079449;28;20022;-70
2022/05/10 05:07:09;;;;;;;15.98;7.50;;;17.10;87.90;;;;;;2079098;28;20037;-70
2022/05/10 05:08:09;;;;;;;17.20;6.95;;;17.30;87.10;;;;;;2079550;28;20037;-70
2022/05/10 05:09:10;;;;;;;12.95;7.15;;;17.40;85.90;;;;;;2079790;28;20035;-70
2022/05/10 05:10:11;;;;;;;13.50;6.70;;;17.70;84.20;;;;;;2079495;28;20395;-70
2022/05/10 05:11:12;;;;;;;18.30;7.00;;;17.80;82.70;;;;;;2080185;28;20029;-70
2022/05/10 05:12:12;;;;;;;16.52;7.20;;;18.00;81.40;;;;;;2080300;28;20076;-70
2022/05/10 05:13:16;;;;;;;16.40;6.93;;;18.20;79.80;;;;;;2080302;28;20045;-69
2022/05/10 05:14:17;;;;;;;12.15;6.53;;;18.30;78.80;;;;;;2079945;28;20022;-70
2022/05/10 05:15:18;;;;;;;14.10;6.70;;;18.50;78.00;;;;;;2080328;28;20096;-70
2022/05/10 05:16:19;;;;;;;15.98;7.10;;;18.60;77.20;;;;;;2080216;28;20025;-71
2022/05/10 05:17:19;;;;;;;13.45;6.63;;;18.80;76.00;;;;;;2080112;28;20022;-70
2022/05/10 05:18:21;;;;;;;13.05;6.50;;;18.90;75.20;;;;;;2080399;28;20044;-71
2022/05/10 05:19:22;;;;;;;15.15;7.00;;;19.00;74.50;;;;;;2079365;28;20032;-72
2022/05/10 05:20:22;;;;;;;9.23;5.78;;;19.10;73.50;;;;;;2071274;28;20026;-72
2022/05/10 05:21:27;;;;;;;12.45;6.40;;;19.30;72.90;;;;;;2079502;28;20105;-72
2022/05/10 05:22:28;;;;;;;11.27;6.57;;;19.40;71.60;;;;;;2079983;28;20030;-71
2022/05/10 05:23:29;;;;;;;15.07;6.40;;;19.50;70.60;;;;;;2080040;28;20104;-71
2022/05/10 05:24:29;;;;;;;11.57;6.30;;;19.50;70.20;;;;;;2079732;28;20041;-71
2022/05/10 05:25:30;;;;;;;10.40;6.15;;;19.60;70.10;;;;;;2079978;28;20025;-70
2022/05/10 05:26:31;;;;;;;10.27;6.28;;;19.70;69.60;;;;;;2079935;28;20479;-71
2022/05/10 05:27:32;;;;;;;11.25;6.40;;;19.90;69.10;;;;;;2070861;28;20045;-69
2022/05/10 05:28:33;;;;;;;9.88;6.50;;;20.10;68.20;;;;;;2071162;28;20052;-69
2022/05/10 05:29:37;;;;;;;10.43;6.05;;;20.00;66.90;;;;;;2080104;28;20020;-69
2022/05/10 05:30:42;;;;;;;11.00;6.15;;;20.10;66.70;;;;;;2080127;28;20125;-69
2022/05/10 05:31:43;;;;;;;11.63;6.40;;;20.20;66.00;;;;;;2079242;28;20033;-71
2022/05/10 05:32:44;;;;;;;10.10;5.80;;;20.40;65.40;;;;;;2079240;28;20560;-71
2022/05/10 05:33:45;;;;;;;10.35;5.75;;;20.60;64.30;;;;;;2080019;28;20033;-71
2022/05/10 05:34:46;;;;;;;13.50;6.18;;;20.80;63.60;;;;;;2079590;28;20030;-71
2022/05/10 05:35:51;;;;;;;10.70;6.45;;;20.80;62.20;;;;;;2079674;28;20562;-70
2022/05/10 05:38:11;;;;;;;14.20;6.55;;;20.50;61.50;;;;;;2073602;28;20026;-71
2022/05/10 05:39:14;;;;;;;11.00;6.25;;;19.70;62.80;;;;;;2079267;28;20458;-72
2022/05/10 05:40:16;;;;;;;11.65;5.93;;;19.30;64.50;;;;;;2079801;28;20045;-70
2022/05/10 05:41:18;;;;;;;9.65;6.10;;;19.00;65.70;;;;;;2080048;28;20794;-72
2022/05/10 05:42:18;;;;;;;9.88;6.22;;;18.70;66.70;;;;;;2081462;28;20033;-73
2022/05/10 05:43:22;;;;;;;9.80;5.78;;;18.40;68.00;;;;;;2081742;28;20484;-71
2022/05/10 05:44:23;;;;;;;10.68;5.90;;;18.10;69.20;;;;;;2073346;28;20099;-72